Time;durP1;ratioP1;P1;durP2;ratioP2;P2;SDS_P1;SDS_P2;PMS_P1;PMS_P2;Temp;Humidity;BMP_temperature;BMP_pressure;BME280_temperature;BME280_humidity;BME280_pressure;Samples;Min_cycle;Max_cycle;Signal;HPM_P1;HPM_P2
2023/01/17 00:01:27;;;;;;;3.63;3.43;;;7.00;99.90;;;;;;5054156;28;20172;-65
2023/01/17 00:12:17;;;;;;;3.70;3.50;;;7.10;99.90;;;;;;5054989;28;20941;-65
2023/01/17 00:14:43;;;;;;;3.73;3.43;;;7.10;99.90;;;;;;5035585;28;20418;-65
2023/01/17 00:17:09;;;;;;;4.17;3.73;;;7.10;99.90;;;;;;5053562;28;20469;-65
2023/01/17 01:34:34;;;;;;;3.50;3.20;;;6.80;99.90;;;;;;5050554;28;20500;-70
2023/01/17 01:36:59;;;;;;;4.30;4.00;;;6.80;99.90;;;;;;5046766;28;20470;-65
2023/01/17 01:39:25;;;;;;;4.20;3.80;;;7.00;99.90;;;;;;5050482;28;20658;-65
2023/01/17 01:41:51;;;;;;;3.60;3.30;;;6.90;99.90;;;;;;5050985;28;20476;-65
2023/01/17 01:45:02;;;;;;;3.90;3.60;;;6.90;99.90;;;;;;5053561;28;20203;-65
2023/01/17 01:47:29;;;;;;;3.97;3.70;;;6.90;99.90;;;;;;5052145;28;20254;-65
2023/01/17 01:49:58;;;;;;;4.20;3.90;;;6.90;99.90;;;;;;5052533;28;20403;-65
2023/01/17 01:52:27;;;;;;;3.50;3.30;;;6.80;99.90;;;;;;5053441;28;20445;-65
2023/01/17 01:54:57;;;;;;;3.37;3.17;;;6.80;99.90;;;;;;5052611;28;20441;-66
2023/01/17 01:57:28;;;;;;;3.80;3.50;;;6.70;99.90;;;;;;5052208;28;20954;-65
2023/01/17 02:00:01;;;;;;;2.70;2.60;;;6.70;99.90;;;;;;5052429;28;20417;-65
2023/01/17 02:02:29;;;;;;;2.80;2.60;;;6.70;99.90;;;;;;5051758;28;20386;-65
2023/01/17 02:04:56;;;;;;;2.50;2.30;;;6.60;99.90;;;;;;5049850;28;20491;-65
2023/01/17 02:07:28;;;;;;;2.60;2.50;;;6.50;99.90;;;;;;5052319;28;20437;-65
2023/01/17 02:09:54;;;;;;;2.87;2.77;;;6.40;99.90;;;;;;5052478;28;20499;-65
2023/01/17 02:12:20;;;;;;;2.40;2.30;;;6.50;99.90;;;;;;5051999;28;20821;-65
2023/01/17 02:14:46;;;;;;;2.80;2.60;;;6.50;99.90;;;;;;5052047;28;20601;-65
2023/01/17 02:17:31;;;;;;;2.70;2.60;;;6.40;99.90;;;;;;5051721;28;20547;-65
2023/01/17 02:19:57;;;;;;;2.90;2.77;;;6.40;99.90;;;;;;5052012;28;20167;-65
2023/01/17 02:23:02;;;;;;;3.37;3.17;;;6.50;99.90;;;;;;5050324;28;20425;-65
2023/01/17 02:26:18;;;;;;;3.20;3.00;;;6.60;99.90;;;;;;5028940;28;20203;-65
2023/01/17 02:29:05;;;;;;;2.88;2.78;;;6.60;99.90;;;;;;5022495;28;20389;-65
2023/01/17 02:31:56;;;;;;;3.47;3.27;;;6.60;99.90;;;;;;5040326;28;20508;-65
2023/01/17 02:35:07;;;;;;;3.63;3.43;;;6.60;99.90;;;;;;5052599;28;20730;-65
2023/01/17 02:37:35;;;;;;;3.20;3.00;;;6.50;99.90;;;;;;5010320;28;20470;-65
2023/01/17 02:40:06;;;;;;;5.07;4.60;;;6.50;99.90;;;;;;5027572;28;20434;-65
2023/01/17 02:42:41;;;;;;;4.40;4.10;;;6.40;99.90;;;;;;5031334;28;20214;-65
2023/01/17 02:45:07;;;;;;;4.93;4.43;;;6.50;99.90;;;;;;5032575;28;20179;-65
2023/01/17 02:47:33;;;;;;;5.43;4.93;;;6.30;99.90;;;;;;5032436;28;20417;-65
2023/01/17 02:50:08;;;;;;;4.63;4.23;;;6.30;99.90;;;;;;5030231;28;20880;-65
2023/01/17 02:53:01;;;;;;;3.85;3.60;;;6.30;99.90;;;;;;5032489;28;20188;-65
2023/01/17 02:55:45;;;;;;;3.30;3.10;;;6.20;99.90;;;;;;5031681;28;20183;-65
2023/01/17 02:58:26;;;;;;;3.57;3.37;;;6.20;99.90;;;;;;5033753;28;20492;-65
2023/01/17 03:01:02;;;;;;;3.85;3.65;;;6.30;99.90;;;;;;5050326;28;20427;-65
2023/01/17 03:03:39;;;;;;;4.70;3.30;;;6.30;99.90;;;;;;5047622;28;20183;-65
2023/01/17 03:06:12;;;;;;;3.70;3.50;;;6.30;99.90;;;;;;5032371;28;20415;-65
2023/01/17 03:08:41;;;;;;;3.75;3.30;;;6.30;99.90;;;;;;5031703;28;20182;-70
2023/01/17 03:11:08;;;;;;;3.33;3.13;;;6.10;99.90;;;;;;5039095;28;20241;-65
2023/01/17 03:13:35;;;;;;;2.88;2.78;;;6.10;99.90;;;;;;5052216;28;20424;-65
2023/01/17 03:16:06;;;;;;;2.65;2.45;;;5.80;99.90;;;;;;5050440;28;20181;-65
2023/01/17 03:18:33;;;;;;;2.70;2.60;;;5.70;99.90;;;;;;5051269;28;20206;-65
2023/01/17 03:20:59;;;;;;;2.38;2.28;;;5.70;99.90;;;;;;5051268;28;20166;-65
2023/01/17 03:23:25;;;;;;;2.17;2.17;;;5.50;99.90;;;;;;5051996;28;20177;-65
2023/01/17 03:25:51;;;;;;;2.20;2.20;;;5.40;99.90;;;;;;5050112;28;20178;-65
2023/01/17 03:28:16;;;;;;;1.83;1.80;;;5.30;99.90;;;;;;5051997;28;20173;-66
2023/01/17 03:30:42;;;;;;;1.50;1.50;;;5.20;99.90;;;;;;5048587;28;20650;-68
2023/01/17 03:33:08;;;;;;;1.70;1.70;;;5.10;99.90;;;;;;5051876;28;20188;-66
2023/01/17 03:35:33;;;;;;;1.90;1.90;;;5.10;99.90;;;;;;5051783;28;20182;-65
2023/01/17 03:37:59;;;;;;;1.80;1.70;;;5.10;99.90;;;;;;5049642;28;20206;-66
2023/01/17 03:40:25;;;;;;;1.50;1.50;;;4.90;99.90;;;;;;5051935;28;20226;-66
2023/01/17 03:42:51;;;;;;;2.00;2.00;;;4.80;99.90;;;;;;5051060;28;20232;-66
2023/01/17 03:45:17;;;;;;;1.67;1.67;;;4.70;99.90;;;;;;5051896;28;20205;-65
2023/01/17 03:47:43;;;;;;;1.90;1.90;;;4.90;99.90;;;;;;5051034;28;20235;-68
2023/01/17 03:50:09;;;;;;;2.30;2.30;;;4.80;99.90;;;;;;5051518;28;20196;-64
2023/01/17 03:52:35;;;;;;;1.80;1.70;;;4.90;99.90;;;;;;5050629;28;20536;-64
2023/01/17 03:55:01;;;;;;;2.00;2.00;;;5.00;99.90;;;;;;5049641;28;20244;-63
2023/01/17 03:57:28;;;;;;;1.60;1.60;;;5.00;99.90;;;;;;5051613;28;20205;-64
2023/01/17 03:59:53;;;;;;;2.10;2.10;;;5.00;99.90;;;;;;5050920;28;20265;-64
2023/01/17 04:02:19;;;;;;;2.50;2.40;;;5.10;99.90;;;;;;5050422;28;20277;-64
2023/01/17 04:04:45;;;;;;;2.13;2.10;;;5.10;99.90;;;;;;5050856;28;20524;-65
2023/01/17 04:07:10;;;;;;;2.50;2.43;;;5.20;99.90;;;;;;5055521;28;20201;-64
2023/01/17 04:09:36;;;;;;;2.80;2.70;;;5.10;99.90;;;;;;5055581;28;20171;-64
2023/01/17 04:12:02;;;;;;;3.10;3.00;;;5.20;99.90;;;;;;5054540;28;20794;-64
2023/01/17 04:14:28;;;;;;;2.70;2.60;;;5.20;99.90;;;;;;5055016;28;20614;-64
2023/01/17 04:16:55;;;;;;;3.00;2.90;;;5.20;99.90;;;;;;5054143;28;20250;-64
2023/01/17 04:19:20;;;;;;;3.63;3.45;;;5.20;99.90;;;;;;5054225;28;20403;-64
2023/01/17 04:21:46;;;;;;;3.43;3.17;;;5.10;99.90;;;;;;5053058;28;20189;-65
2023/01/17 04:24:12;;;;;;;3.00;2.90;;;5.10;99.90;;;;;;5054737;28;20409;-64
2023/01/17 04:26:37;;;;;;;3.00;2.90;;;5.20;99.90;;;;;;5053097;28;20173;-64
2023/01/17 04:29:03;;;;;;;3.20;3.00;;;5.30;99.90;;;;;;5053928;28;20181;-64
2023/01/17 04:31:29;;;;;;;3.90;3.50;;;5.30;99.90;;;;;;5053451;28;20173;-64
2023/01/17 04:33:55;;;;;;;3.40;3.20;;;5.30;99.90;;;;;;5053815;28;20305;-64
2023/01/17 04:36:20;;;;;;;3.03;2.93;;;5.40;99.90;;;;;;5054794;28;20216;-64
2023/01/17 04:38:46;;;;;;;3.83;3.63;;;5.40;99.90;;;;;;5052687;28;20299;-66
2023/01/17 04:41:12;;;;;;;4.83;4.50;;;5.50;99.90;;;;;;5054431;28;20312;-64
2023/01/17 04:43:37;;;;;;;4.30;3.90;;;5.40;99.90;;;;;;5054688;28;20261;-64
2023/01/17 04:46:08;;;;;;;6.50;6.20;;;5.40;99.90;;;;;;5053576;28;20724;-67
2023/01/17 04:48:35;;;;;;;3.88;3.47;;;5.50;99.90;;;;;;5034793;28;20175;-64
2023/01/17 04:51:02;;;;;;;4.40;4.00;;;5.50;99.90;;;;;;5040235;28;20182;-64
2023/01/17 04:53:28;;;;;;;5.43;5.13;;;5.50;99.90;;;;;;5054490;28;20174;-64
2023/01/17 04:55:54;;;;;;;4.60;4.30;;;5.50;99.90;;;;;;5052465;28;20182;-64
2023/01/17 04:58:19;;;;;;;4.80;4.40;;;5.60;99.90;;;;;;5054386;28;20201;-64
2023/01/17 05:00:49;;;;;;;3.73;3.43;;;5.50;99.90;;;;;;5053897;28;20186;-69
2023/01/17 05:03:16;;;;;;;4.60;4.22;;;5.60;99.90;;;;;;5054290;28;20181;-64
2023/01/17 05:05:43;;;;;;;7.90;7.40;;;5.60;99.90;;;;;;5054292;28;20197;-64
2023/01/17 05:08:08;;;;;;;6.95;6.47;;;5.80;99.90;;;;;;5053837;28;20176;-64
2023/01/17 05:10:34;;;;;;;4.10;3.73;;;5.80;99.90;;;;;;5054225;28;20182;-64
2023/01/17 05:13:01;;;;;;;3.93;3.63;;;5.80;99.90;;;;;;5053320;28;20257;-64
2023/01/17 05:15:26;;;;;;;6.82;6.32;;;5.90;99.90;;;;;;5052993;28;20190;-64
2023/01/17 05:17:53;;;;;;;5.50;4.80;;;5.90;99.90;;;;;;5052389;28;20293;-64
2023/01/17 05:20:23;;;;;;;4.60;4.20;;;6.00;99.90;;;;;;5052448;28;20429;-64
2023/01/17 05:22:56;;;;;;;4.78;4.30;;;6.00;99.90;;;;;;5053266;28;20163;-65
2023/01/17 05:25:23;;;;;;;6.53;6.00;;;6.00;99.90;;;;;;5051493;28;20282;-64
2023/01/17 05:27:49;;;;;;;5.70;4.90;;;5.90;99.90;;;;;;5052361;28;20512;-65
2023/01/17 05:30:16;;;;;;;6.03;4.93;;;6.00;99.90;;;;;;5052755;28;20269;-64
2023/01/17 05:32:47;;;;;;;6.30;4.33;;;6.00;99.90;;;;;;5053740;28;20185;-64
2023/01/17 05:35:13;;;;;;;6.35;5.22;;;6.00;99.90;;;;;;5052014;28;20432;-64
2023/01/17 05:37:38;;;;;;;6.30;5.63;;;6.10;99.90;;;;;;5052517;28;20211;-65
2023/01/17 05:40:05;;;;;;;4.93;4.53;;;6.00;99.90;;;;;;5051238;28;20447;-65
2023/01/17 05:42:31;;;;;;;6.22;4.20;;;6.00;99.90;;;;;;5053271;28;20630;-64
2023/01/17 05:44:56;;;;;;;5.60;4.73;;;6.00;99.90;;;;;;5051387;28;20190;-64
2023/01/17 05:47:22;;;;;;;5.27;4.77;;;6.00;99.90;;;;;;5053416;28;20460;-65
2023/01/17 05:49:48;;;;;;;4.30;4.00;;;6.00;99.90;;;;;;5052362;28;20175;-70
2023/01/17 05:52:13;;;;;;;4.13;3.77;;;5.90;99.90;;;;;;5053107;28;20184;-65
2023/01/17 05:54:39;;;;;;;5.13;4.63;;;5.90;99.90;;;;;;5051335;28;20543;-64
2023/01/17 05:57:05;;;;;;;4.60;3.80;;;6.00;99.90;;;;;;5050214;28;20241;-64
2023/01/17 05:59:30;;;;;;;5.70;5.13;;;6.00;99.90;;;;;;5052147;28;20193;-64
2023/01/17 06:01:56;;;;;;;6.53;5.93;;;5.90;99.90;;;;;;5051418;28;20239;-64
2023/01/17 06:04:21;;;;;;;5.23;4.73;;;5.90;99.90;;;;;;5052217;28;20190;-64
2023/01/17 06:06:47;;;;;;;5.27;4.03;;;5.90;99.90;;;;;;5052305;28;20182;-70
2023/01/17 06:09:13;;;;;;;5.40;4.30;;;6.00;99.90;;;;;;5051304;28;20630;-64
2023/01/17 06:11:38;;;;;;;4.57;3.80;;;5.90;99.90;;;;;;5050423;28;20666;-65
2023/01/17 06:14:04;;;;;;;6.40;6.00;;;5.90;99.90;;;;;;5037299;28;20221;-64
2023/01/17 06:16:30;;;;;;;4.80;4.03;;;6.00;99.90;;;;;;5044877;28;20634;-64
2023/01/17 06:18:55;;;;;;;4.70;4.30;;;6.00;99.90;;;;;;5050744;28;20210;-64
2023/01/17 06:21:21;;;;;;;6.10;5.60;;;6.00;99.90;;;;;;5051567;28;20198;-64
2023/01/17 06:23:47;;;;;;;4.67;4.27;;;6.00;99.90;;;;;;5049497;28;20320;-68
2023/01/17 06:26:13;;;;;;;4.07;3.70;;;6.00;99.90;;;;;;5048999;28;20197;-64
2023/01/17 06:28:38;;;;;;;5.83;5.27;;;6.00;99.90;;;;;;5051808;28;20533;-66
2023/01/17 06:31:06;;;;;;;4.70;3.93;;;6.00;99.90;;;;;;5050804;28;20190;-65
2023/01/17 06:33:32;;;;;;;5.90;4.20;;;6.00;99.90;;;;;;5051820;28;20189;-65
2023/01/17 06:35:57;;;;;;;7.27;5.87;;;5.90;99.90;;;;;;5052071;28;20180;-64
2023/01/17 06:38:23;;;;;;;5.87;5.37;;;6.00;99.90;;;;;;5052246;28;20217;-64
2023/01/17 06:40:49;;;;;;;6.87;4.17;;;6.00;99.90;;;;;;5049631;28;20262;-69
2023/01/17 06:43:15;;;;;;;5.30;3.93;;;6.00;99.90;;;;;;5050076;28;20178;-65
2023/01/17 06:45:40;;;;;;;4.73;4.33;;;6.00;99.90;;;;;;5052442;28;20178;-64
2023/01/17 06:48:07;;;;;;;4.90;4.60;;;6.10;99.90;;;;;;5051799;28;20193;-65
2023/01/17 06:50:33;;;;;;;7.03;4.18;;;6.10;99.90;;;;;;5050439;28;20179;-64
2023/01/17 06:53:01;;;;;;;5.80;4.10;;;6.10;99.90;;;;;;5050770;28;20245;-65
2023/01/17 06:55:29;;;;;;;5.70;4.60;;;6.20;99.90;;;;;;5048394;28;20432;-65
2023/01/17 06:57:56;;;;;;;5.80;4.75;;;6.20;99.90;;;;;;5048812;28;20821;-66
2023/01/17 07:00:21;;;;;;;7.30;6.30;;;6.20;99.90;;;;;;5052206;28;20194;-64
2023/01/17 07:02:51;;;;;;;7.77;7.03;;;6.10;99.90;;;;;;5051144;28;20226;-65
2023/01/17 07:05:17;;;;;;;5.07;4.45;;;6.10;99.90;;;;;;5051746;28;20245;-64
2023/01/17 07:07:44;;;;;;;5.60;3.83;;;6.10;99.90;;;;;;5052075;28;20622;-64
2023/01/17 07:10:11;;;;;;;5.13;4.67;;;6.10;99.90;;;;;;5051489;28;20508;-65
2023/01/17 07:12:37;;;;;;;7.47;3.95;;;6.10;99.90;;;;;;5052041;28;20461;-64
2023/01/17 07:15:04;;;;;;;4.30;3.33;;;6.10;99.90;;;;;;5051368;28;20194;-64
2023/01/17 07:17:30;;;;;;;6.15;5.55;;;6.10;99.90;;;;;;5050531;28;20762;-65
2023/01/17 07:19:55;;;;;;;4.67;4.20;;;6.10;99.90;;;;;;5050528;28;20291;-65
2023/01/17 07:22:21;;;;;;;4.67;4.00;;;6.10;99.90;;;;;;5052065;28;20874;-64
2023/01/17 07:24:47;;;;;;;6.03;5.53;;;6.10;99.90;;;;;;5049969;28;20181;-64
2023/01/17 07:27:12;;;;;;;6.37;4.43;;;6.10;99.90;;;;;;5051398;28;20188;-64
2023/01/17 07:29:38;;;;;;;7.57;6.23;;;6.10;99.90;;;;;;5055432;28;20217;-64
2023/01/17 07:32:04;;;;;;;7.67;6.13;;;6.10;99.90;;;;;;5050867;28;20182;-65
2023/01/17 07:34:30;;;;;;;6.90;6.30;;;6.20;99.90;;;;;;5038413;28;20266;-63
2023/01/17 07:36:55;;;;;;;8.03;7.23;;;6.10;99.90;;;;;;5051135;28;20384;-63
2023/01/17 07:39:21;;;;;;;9.80;6.63;;;6.10;99.90;;;;;;5052236;28;20634;-63
2023/01/17 07:41:47;;;;;;;7.77;6.97;;;6.10;99.90;;;;;;5055551;28;20231;-63
2023/01/17 07:44:13;;;;;;;8.00;6.03;;;6.20;99.90;;;;;;5055568;28;20201;-63
2023/01/17 07:46:39;;;;;;;10.50;8.20;;;6.20;99.90;;;;;;5055843;28;20178;-63
2023/01/17 07:49:05;;;;;;;9.07;7.77;;;6.30;99.90;;;;;;5054016;28;20723;-64
2023/01/17 07:51:30;;;;;;;8.03;7.20;;;6.30;99.90;;;;;;5056002;28;20506;-64
2023/01/17 07:53:56;;;;;;;9.83;8.87;;;6.30;99.90;;;;;;5055291;28;20171;-63
2023/01/17 07:56:22;;;;;;;12.57;7.07;;;6.30;99.90;;;;;;5055780;28;20182;-62
2023/01/17 07:58:48;;;;;;;10.33;9.00;;;6.30;99.90;;;;;;5067975;28;20296;-63
2023/01/17 08:01:14;;;;;;;9.77;7.67;;;6.30;99.90;;;;;;5058362;28;20437;-63
2023/01/17 08:03:41;;;;;;;10.77;8.03;;;6.30;99.90;;;;;;5054878;28;20224;-63
2023/01/17 08:06:16;;;;;;;9.97;9.07;;;6.40;99.90;;;;;;5059128;28;20402;-63
2023/01/17 08:08:41;;;;;;;9.45;7.95;;;6.40;99.90;;;;;;5054099;28;20511;-66
2023/01/17 08:11:07;;;;;;;10.40;9.27;;;6.30;99.90;;;;;;5052915;28;20325;-65
2023/01/17 08:13:33;;;;;;;12.50;11.50;;;7.00;99.90;;;;;;5055607;28;20188;-65
2023/01/17 08:16:01;;;;;;;9.90;9.00;;;7.70;99.90;;;;;;5054858;28;20187;-66
2023/01/17 08:18:27;;;;;;;10.70;9.70;;;8.30;99.90;;;;;;5055645;28;20216;-66
2023/01/17 08:20:53;;;;;;;10.07;9.17;;;9.00;99.90;;;;;;5054198;28;20427;-66
2023/01/17 08:23:19;;;;;;;10.07;9.00;;;9.50;99.90;;;;;;5054403;28;20438;-65
2023/01/17 08:25:45;;;;;;;8.40;7.60;;;10.00;99.90;;;;;;5054299;28;20178;-66
2023/01/17 08:28:11;;;;;;;10.97;8.47;;;10.50;99.90;;;;;;5054793;28;20502;-65
2023/01/17 08:30:37;;;;;;;9.20;8.40;;;10.80;99.90;;;;;;5055428;28;20194;-65
2023/01/17 08:33:02;;;;;;;8.60;7.00;;;11.10;99.90;;;;;;5054903;28;20169;-66
2023/01/17 08:35:28;;;;;;;8.53;7.10;;;11.40;99.90;;;;;;5054908;28;20731;-63
2023/01/17 08:37:55;;;;;;;8.77;7.97;;;11.50;97.10;;;;;;5053433;28;20213;-64
2023/01/17 08:40:21;;;;;;;7.97;7.27;;;11.10;93.60;;;;;;5054718;28;20626;-63
2023/01/17 08:42:58;;;;;;;7.77;7.07;;;10.70;93.70;;;;;;5055193;28;20413;-63
2023/01/17 08:45:24;;;;;;;14.70;7.67;;;10.30;93.60;;;;;;5054869;28;20885;-62
2023/01/17 08:47:50;;;;;;;8.87;8.00;;;10.00;94.60;;;;;;5055088;28;20447;-63
2023/01/17 08:50:19;;;;;;;11.10;7.93;;;9.60;96.00;;;;;;5053163;28;21223;-63
2023/01/17 08:52:47;;;;;;;9.33;8.20;;;9.30;97.20;;;;;;5052416;28;20242;-63
2023/01/17 08:55:13;;;;;;;12.53;8.50;;;8.90;98.20;;;;;;5051903;28;20428;-63
2023/01/17 08:57:39;;;;;;;9.30;8.33;;;8.70;99.70;;;;;;5050708;28;20464;-66
2023/01/17 09:00:06;;;;;;;9.20;8.30;;;8.50;99.90;;;;;;5051752;28;20415;-64
2023/01/17 09:02:32;;;;;;;9.33;8.30;;;8.20;99.90;;;;;;5053803;28;20192;-64
2023/01/17 09:04:57;;;;;;;13.77;12.47;;;8.10;99.90;;;;;;5057156;28;20595;-68
2023/01/17 09:07:25;;;;;;;10.90;9.80;;;7.90;99.90;;;;;;5061222;28;20806;-63
2023/01/17 09:09:51;;;;;;;11.93;9.67;;;7.80;99.90;;;;;;5055552;28;20239;-65
2023/01/17 09:12:19;;;;;;;9.17;7.90;;;7.70;99.90;;;;;;5053982;28;21076;-64
2023/01/17 09:14:45;;;;;;;11.40;8.63;;;7.60;99.90;;;;;;5053598;28;20420;-64
2023/01/17 09:17:10;;;;;;;9.40;8.50;;;7.70;99.90;;;;;;5053808;28;20409;-64
2023/01/17 09:19:39;;;;;;;9.97;8.30;;;7.70;99.90;;;;;;5052278;28;20425;-64
2023/01/17 09:22:05;;;;;;;8.47;7.60;;;7.70;99.90;;;;;;5053591;28;20562;-64
2023/01/17 09:24:32;;;;;;;9.60;8.43;;;7.70;99.90;;;;;;5054442;28;20486;-64
2023/01/17 09:26:58;;;;;;;13.37;9.67;;;7.60;99.90;;;;;;5052981;28;20506;-64
2023/01/17 09:29:24;;;;;;;10.67;7.97;;;7.50;99.90;;;;;;5054183;28;20415;-64
2023/01/17 09:31:49;;;;;;;10.07;9.03;;;7.50;99.90;;;;;;5054509;28;20448;-64
2023/01/17 09:34:17;;;;;;;10.73;9.63;;;7.40;99.90;;;;;;5053572;28;20506;-64
2023/01/17 09:36:43;;;;;;;10.43;9.33;;;7.30;99.90;;;;;;5054121;28;20176;-65
2023/01/17 09:39:10;;;;;;;10.40;9.30;;;7.30;99.90;;;;;;5052907;28;20505;-64
2023/01/17 09:42:00;;;;;;;10.77;8.70;;;7.20;99.90;;;;;;5053624;28;20519;-64
2023/01/17 09:44:41;;;;;;;17.30;9.37;;;7.10;99.90;;;;;;5053311;28;20394;-64
2023/01/17 09:47:30;;;;;;;12.43;9.50;;;7.20;99.90;;;;;;5052954;28;20402;-64
2023/01/17 09:50:19;;;;;;;10.43;8.70;;;7.20;99.90;;;;;;5053837;28;20487;-64
2023/01/17 09:52:44;;;;;;;11.10;9.90;;;7.10;99.90;;;;;;5049632;28;20431;-64
2023/01/17 09:55:17;;;;;;;14.60;10.30;;;7.10;99.90;;;;;;5051862;28;20398;-64
2023/01/17 09:57:55;;;;;;;13.60;9.87;;;7.10;99.90;;;;;;5053629;28;20206;-64
2023/01/17 10:00:37;;;;;;;11.07;8.97;;;7.10;99.90;;;;;;5053072;28;20421;-64
2023/01/17 10:03:22;;;;;;;11.70;10.60;;;7.10;99.90;;;;;;5052975;28;20481;-64
2023/01/17 10:06:32;;;;;;;16.43;9.17;;;7.10;99.90;;;;;;5053668;28;20465;-63
2023/01/17 10:09:24;;;;;;;13.17;10.20;;;7.20;99.90;;;;;;5044779;28;20824;-63
2023/01/17 10:12:17;;;;;;;12.43;10.30;;;7.20;99.90;;;;;;5052280;28;20403;-64
2023/01/17 10:15:09;;;;;;;14.10;9.60;;;7.30;99.90;;;;;;5053166;28;20399;-63
2023/01/17 10:18:05;;;;;;;11.40;9.53;;;7.30;99.90;;;;;;5053395;28;20454;-63
2023/01/17 10:20:40;;;;;;;10.97;9.90;;;7.30;99.90;;;;;;5051895;28;20468;-64
2023/01/17 10:23:20;;;;;;;14.03;9.57;;;7.30;99.90;;;;;;5052555;28;20403;-64
2023/01/17 10:25:51;;;;;;;10.47;8.50;;;7.20;99.90;;;;;;5053170;28;20488;-63
2023/01/17 10:28:34;;;;;;;12.63;8.40;;;7.20;99.90;;;;;;5052501;28;20452;-64
2023/01/17 10:31:09;;;;;;;12.27;9.40;;;7.20;99.90;;;;;;5051872;28;20505;-64
2023/01/17 10:33:51;;;;;;;9.63;8.30;;;7.20;99.90;;;;;;5051854;28;20410;-64
2023/01/17 10:36:30;;;;;;;11.37;9.03;;;7.20;99.90;;;;;;5052192;28;20407;-64
2023/01/17 10:39:00;;;;;;;11.03;8.67;;;7.30;99.90;;;;;;5052666;28;20483;-63
2023/01/17 10:41:43;;;;;;;9.50;8.50;;;7.40;99.90;;;;;;5052316;28;20959;-64
2023/01/17 10:44:21;;;;;;;9.03;7.93;;;7.40;99.90;;;;;;5052664;28;20398;-64
2023/01/17 10:46:55;;;;;;;8.60;7.70;;;7.40;99.90;;;;;;5052889;28;20407;-64
2023/01/17 10:49:22;;;;;;;10.20;7.67;;;7.40;99.90;;;;;;5051952;28;20395;-64
2023/01/17 10:52:10;;;;;;;11.50;8.73;;;7.40;99.90;;;;;;5050530;28;20418;-64
2023/01/17 10:54:37;;;;;;;11.67;8.17;;;7.40;99.90;;;;;;5051352;28;20965;-64
2023/01/17 10:57:03;;;;;;;9.30;7.60;;;7.30;99.90;;;;;;5051921;28;20494;-64
2023/01/17 10:59:30;;;;;;;9.80;7.30;;;7.30;99.90;;;;;;5050364;28;20404;-64
2023/01/17 11:01:57;;;;;;;10.70;9.70;;;7.20;99.90;;;;;;5052475;28;20897;-64
2023/01/17 11:04:29;;;;;;;10.57;6.90;;;7.20;99.90;;;;;;5051832;28;20402;-64
2023/01/17 11:07:25;;;;;;;15.30;9.37;;;7.20;99.90;;;;;;5052690;28;20411;-64
2023/01/17 11:09:55;;;;;;;12.10;8.57;;;7.40;99.90;;;;;;5052860;28;20770;-64
2023/01/17 11:12:44;;;;;;;10.27;7.97;;;7.60;99.90;;;;;;5051957;28;20414;-64
2023/01/17 11:15:10;;;;;;;8.57;7.50;;;7.60;99.90;;;;;;5051282;28;20400;-64
2023/01/17 11:18:00;;;;;;;11.93;8.20;;;7.70;99.90;;;;;;5052327;28;20517;-64
2023/01/17 11:20:37;;;;;;;11.00;9.30;;;7.90;99.90;;;;;;5047592;28;20464;-64
2023/01/17 11:23:15;;;;;;;13.20;8.70;;;8.10;99.90;;;;;;5052203;28;20450;-65
2023/01/17 11:25:49;;;;;;;8.60;7.03;;;8.20;99.90;;;;;;5052502;28;20419;-62
2023/01/17 11:28:22;;;;;;;9.83;8.03;;;8.30;99.90;;;;;;5050708;28;20397;-62
2023/01/17 11:30:57;;;;;;;11.13;7.93;;;8.30;99.90;;;;;;5052427;28;20443;-62
2023/01/17 11:33:47;;;;;;;7.50;6.70;;;8.40;99.90;;;;;;5051665;28;20407;-62
2023/01/17 11:36:26;;;;;;;7.00;6.23;;;8.50;99.90;;;;;;5050400;28;20773;-62
2023/01/17 11:38:57;;;;;;;9.07;7.00;;;8.60;99.90;;;;;;5052208;28;20947;-62
2023/01/17 11:41:26;;;;;;;11.10;6.13;;;8.70;99.90;;;;;;5051282;28;20462;-62
2023/01/17 11:43:57;;;;;;;9.50;8.57;;;8.60;99.90;;;;;;5052235;28;20420;-62
2023/01/17 11:46:24;;;;;;;10.20;6.60;;;8.60;99.90;;;;;;5051483;28;20480;-63
2023/01/17 11:48:55;;;;;;;8.50;7.77;;;8.50;99.90;;;;;;5052045;28;20422;-63
2023/01/17 11:51:32;;;;;;;8.83;8.03;;;8.50;99.90;;;;;;5050381;28;20392;-64
2023/01/17 11:54:17;;;;;;;8.63;5.47;;;8.40;99.90;;;;;;5052281;28;20401;-63
2023/01/17 11:56:45;;;;;;;6.83;6.13;;;8.30;99.90;;;;;;5051958;28;20395;-63
2023/01/17 11:59:22;;;;;;;8.47;7.77;;;8.20;99.90;;;;;;5051507;28;20462;-64
2023/01/17 12:02:22;;;;;;;9.33;8.30;;;8.20;99.90;;;;;;5051873;28;20396;-63
2023/01/17 12:05:22;;;;;;;8.17;6.40;;;8.20;99.90;;;;;;5052458;28;20415;-63
2023/01/17 12:08:05;;;;;;;7.47;6.30;;;8.10;99.90;;;;;;5050701;28;20434;-63
2023/01/17 12:10:42;;;;;;;7.33;6.00;;;8.00;99.90;;;;;;5051732;28;20392;-63
2023/01/17 12:16:44;;;;;;;8.30;6.13;;;7.90;99.90;;;;;;5050233;28;20422;-64
2023/01/17 12:19:18;;;;;;;7.33;6.03;;;7.90;99.90;;;;;;5040552;28;20627;-64
2023/01/17 12:21:47;;;;;;;8.73;6.97;;;7.80;99.90;;;;;;5051963;28;20408;-63
2023/01/17 12:24:22;;;;;;;6.10;5.47;;;7.90;99.90;;;;;;5066743;28;20420;-63
2023/01/17 12:27:08;;;;;;;6.30;5.00;;;7.90;99.90;;;;;;5053379;28;20418;-63
2023/01/17 12:29:57;;;;;;;7.97;5.90;;;8.00;99.90;;;;;;5055176;28;20384;-63
2023/01/17 12:32:53;;;;;;;9.67;5.70;;;7.90;99.90;;;;;;5053358;28;20717;-63
2023/01/17 12:35:51;;;;;;;6.03;5.50;;;7.90;99.90;;;;;;5054301;28;20506;-63
2023/01/17 12:38:38;;;;;;;9.17;5.23;;;7.90;99.50;;;;;;5049940;28;20526;-64
2023/01/17 12:41:25;;;;;;;5.87;5.47;;;7.90;99.70;;;;;;5054880;28;20961;-64
2023/01/17 12:43:56;;;;;;;5.37;4.90;;;7.90;99.80;;;;;;5055293;28;20418;-64
2023/01/17 12:46:39;;;;;;;9.57;5.90;;;7.90;99.90;;;;;;5053100;28;20787;-64
2023/01/17 12:49:40;;;;;;;6.50;5.53;;;8.00;99.90;;;;;;5055133;28;20415;-64
2023/01/17 12:52:28;;;;;;;11.73;7.50;;;8.00;99.90;;;;;;5053689;28;20431;-64
2023/01/17 12:54:59;;;;;;;6.97;6.20;;;8.00;99.90;;;;;;5054883;28;20421;-64
2023/01/17 12:57:38;;;;;;;6.37;5.47;;;7.90;99.90;;;;;;5054337;28;20421;-64
2023/01/17 13:00:10;;;;;;;7.37;6.70;;;8.10;99.90;;;;;;5053660;28;20427;-64
2023/01/17 13:02:38;;;;;;;7.70;5.87;;;8.10;99.90;;;;;;5053504;28;20439;-64
2023/01/17 13:05:14;;;;;;;7.20;6.57;;;8.10;99.90;;;;;;5054678;28;20473;-64
2023/01/17 13:07:57;;;;;;;9.23;4.93;;;8.20;98.70;;;;;;5053482;28;20831;-64
2023/01/17 13:10:44;;;;;;;10.40;5.90;;;8.20;98.50;;;;;;5053827;28;20570;-64
2023/01/17 13:13:22;;;;;;;5.80;5.30;;;8.30;99.00;;;;;;5054721;28;20400;-64
2023/01/17 13:16:06;;;;;;;5.20;4.70;;;8.40;99.40;;;;;;5054213;28;20726;-64
2023/01/17 13:18:34;;;;;;;6.80;5.20;;;8.60;98.60;;;;;;5052671;28;20451;-64
2023/01/17 13:21:24;;;;;;;4.37;3.93;;;8.70;99.00;;;;;;5054344;28;20413;-64
2023/01/17 13:24:11;;;;;;;6.50;4.47;;;8.70;96.30;;;;;;5053565;28;20735;-65
2023/01/17 13:26:51;;;;;;;7.60;4.80;;;8.80;96.00;;;;;;5053828;28;20403;-64
2023/01/17 13:29:51;;;;;;;4.80;3.93;;;8.90;95.60;;;;;;5053548;28;20418;-65
2023/01/17 13:32:26;;;;;;;4.67;4.27;;;9.00;94.50;;;;;;5052409;28;20430;-65
2023/01/17 13:35:13;;;;;;;5.10;4.70;;;9.00;95.50;;;;;;5064900;28;20451;-65
2023/01/17 13:37:57;;;;;;;5.37;4.90;;;9.10;94.80;;;;;;5053303;28;20510;-63
2023/01/17 13:40:44;;;;;;;4.97;4.40;;;9.30;94.50;;;;;;5053428;28;20458;-65
2023/01/17 13:43:22;;;;;;;10.50;5.90;;;9.30;93.60;;;;;;5036257;28;20421;-64
2023/01/17 13:45:56;;;;;;;5.63;5.23;;;9.30;93.80;;;;;;5053666;28;20728;-64
2023/01/17 13:48:24;;;;;;;6.37;5.23;;;9.40;93.10;;;;;;5053266;28;20473;-64
2023/01/17 13:50:59;;;;;;;5.33;4.93;;;9.30;93.60;;;;;;5053678;28;20420;-64
2023/01/17 13:53:27;;;;;;;5.93;4.67;;;9.30;93.00;;;;;;5052999;28;20396;-63
2023/01/17 13:56:14;;;;;;;9.57;5.07;;;9.30;93.00;;;;;;5053693;28;20417;-63
2023/01/17 13:58:48;;;;;;;5.93;5.37;;;9.40;92.10;;;;;;5052411;28;20550;-63
2023/01/17 14:01:37;;;;;;;7.47;6.97;;;9.60;91.90;;;;;;5053588;28;20462;-63
2023/01/17 14:04:02;;;;;;;7.77;5.10;;;9.10;90.90;;;;;;5031303;28;20834;-64
2023/01/17 14:06:43;;;;;;;6.43;4.80;;;9.20;92.00;;;;;;5044836;28;20440;-65
2023/01/17 14:09:11;;;;;;;5.83;5.23;;;9.20;92.00;;;;;;5052026;28;20461;-64
2023/01/17 14:12:05;;;;;;;6.17;4.50;;;9.30;91.80;;;;;;5052359;28;21090;-64
2023/01/17 14:14:35;;;;;;;5.73;4.80;;;9.20;91.80;;;;;;5051174;28;20554;-66
2023/01/17 14:17:24;;;;;;;6.00;4.00;;;9.20;91.50;;;;;;5050950;28;20786;-63
2023/01/17 14:19:53;;;;;;;3.63;3.23;;;9.30;91.50;;;;;;5048786;28;20439;-62
2023/01/17 14:22:18;;;;;;;4.40;3.83;;;9.10;91.50;;;;;;5050260;28;20489;-65
2023/01/17 14:25:08;;;;;;;5.10;4.17;;;9.10;91.40;;;;;;5033277;28;20425;-63
2023/01/17 14:27:41;;;;;;;6.77;6.27;;;9.10;91.80;;;;;;5032499;28;20174;-63
2023/01/17 14:30:17;;;;;;;5.30;5.00;;;9.00;91.40;;;;;;5033999;28;20413;-64
2023/01/17 14:33:04;;;;;;;5.47;5.07;;;9.00;91.20;;;;;;5050613;28;20435;-63
2023/01/17 14:35:33;;;;;;;4.43;4.03;;;9.00;91.60;;;;;;5051824;28;20454;-63
2023/01/17 14:38:01;;;;;;;4.43;3.90;;;8.90;92.00;;;;;;5050282;28;20460;-63
2023/01/17 14:40:29;;;;;;;4.77;3.70;;;8.90;92.30;;;;;;5047848;28;20510;-63
2023/01/17 14:43:00;;;;;;;29.13;20.77;;;8.80;92.50;;;;;;5052453;28;20432;-64
2023/01/17 14:45:31;;;;;;;200.70;108.00;;;8.70;93.50;;;;;;5050497;28;20439;-63
2023/01/17 14:48:00;;;;;;;35.10;21.17;;;8.70;94.90;;;;;;5050057;28;20494;-64